Air Navigation Services of Czech Republic
Airport: LKLN Updated:  22.05.2019 02:25:25  UTC
 METAR LKLN 22.05. 02:30 ...
METAR LKLN 220230Z AUTO 27004KT 230V320 9999 13/12 Q1011=